Terminal Aerodrome Forecast
Issued by NWS

Home | Current Version | Previous Version | Text Only | Print | Product List | Glossary On
Versions: 1 2 3 4 5 6 7 8 9 10 11 12 13 14 15 16 17 18 19 20 21 22 23 24 25 26 27
000
FTUS41 KBUF 141100
TAFJHW
TAF
KJHW 141125Z 1412/1512 17004KT 1SM BR BKN002
     FM141300 17004KT P6SM BKN015
     FM141400 17005KT P6SM BKN025
     FM141600 21008KT P6SM VCTS BKN035CB
     FM142000 26007KT P6SM VCTS BKN035CB
     FM150000 VRB03KT P6SM BKN150
     FM150300 21006KT P6SM BKN040
      AMD LTD TO CLD VIS AND WIND=

USA.gov is the U.S. government's official web portal to all federal, state and local government web resources and services.